Time;durP1;ratioP1;P1;durP2;ratioP2;P2;SDS_P1;SDS_P2;PMS_P1;PMS_P2;Temp;Humidity;BMP_temperature;BMP_pressure;BME280_temperature;BME280_humidity;BME280_pressure;Samples;Min_cycle;Max_cycle;Signal;HPM_P1;HPM_P2
2022/03/22 00:02:24;;;;;;;10.70;5.40;;;;;;;2.47;62.07;100888.45;104800;1271;75814;-29
2022/03/22 00:04:55;;;;;;;10.30;4.80;;;;;;;2.29;62.85;100885.52;104815;1274;75016;-29
2022/03/22 00:07:24;;;;;;;10.30;5.00;;;;;;;2.09;63.30;100886.20;104797;1271;73571;-29
2022/03/22 00:09:54;;;;;;;11.60;5.60;;;;;;;1.87;64.38;100884.33;104755;1274;61013;-29
2022/03/22 00:12:26;;;;;;;12.20;6.00;;;;;;;1.65;64.80;100882.10;104821;1271;61038;-29
2022/03/22 00:14:57;;;;;;;12.50;5.80;;;;;;;1.49;65.61;100880.46;104778;1272;75389;-29
2022/03/22 00:18:06;;;;;;;13.20;6.20;;;;;;;1.35;65.75;100879.63;104770;1271;75020;-29
2022/03/22 00:20:57;;;;;;;11.40;5.70;;;;;;;1.26;66.28;100875.30;104784;1273;75597;-29
2022/03/22 00:23:26;;;;;;;10.40;5.00;;;;;;;1.17;66.72;100872.69;104734;1271;61062;-29
2022/03/22 00:25:56;;;;;;;14.80;5.20;;;;;;;1.13;67.05;100869.81;104775;1271;61223;-29
2022/03/22 00:28:27;;;;;;;9.80;5.00;;;;;;;1.43;66.33;100869.59;104788;1271;75262;-29
2022/03/22 00:30:57;;;;;;;12.80;5.10;;;;;;;2.14;63.93;100875.49;104731;1271;76943;-29
2022/03/22 00:33:26;;;;;;;12.70;4.90;;;;;;;2.45;62.87;100875.13;104776;1271;74623;-29
2022/03/22 00:35:56;;;;;;;11.40;5.20;;;;;;;2.36;62.76;100874.61;104874;1271;62078;-29
2022/03/22 00:38:26;;;;;;;11.10;4.90;;;;;;;2.17;63.36;100870.83;105034;1271;61132;-29
2022/03/22 00:40:56;;;;;;;8.90;5.10;;;;;;;1.94;64.26;100867.43;105054;1271;73260;-28
2022/03/22 00:43:26;;;;;;;10.20;5.00;;;;;;;1.71;64.78;100868.32;105094;1273;76070;-28
2022/03/22 00:45:56;;;;;;;10.50;5.10;;;;;;;1.45;65.82;100862.19;104906;1271;72972;-28
2022/03/22 00:48:26;;;;;;;14.20;6.00;;;;;;;1.30;66.36;100863.95;104808;1271;61173;-28
2022/03/22 00:50:57;;;;;;;16.10;5.50;;;;;;;1.12;67.13;100862.15;104781;1273;62030;-29
2022/03/22 00:53:27;;;;;;;9.40;5.20;;;;;;;0.96;67.76;100863.36;104767;1274;75314;-28
2022/03/22 00:55:57;;;;;;;14.10;5.80;;;;;;;0.86;68.58;100865.20;104680;1274;75988;-28
2022/03/22 00:58:26;;;;;;;9.40;5.80;;;;;;;0.79;68.90;100864.79;105001;1271;74758;-28
2022/03/22 01:00:57;;;;;;;14.70;5.70;;;;;;;0.66;68.91;100860.48;104822;1271;61047;-28
2022/03/22 01:03:28;;;;;;;14.40;4.10;;;;;;;0.55;69.65;100857.52;104760;1271;61054;-28
2022/03/22 01:06:01;;;;;;;16.30;5.60;;;;;;;1.07;68.04;100858.27;104806;1271;73626;-28
2022/03/22 01:08:34;;;;;;;14.00;5.30;;;;;;;1.62;65.81;100856.80;104733;1274;75980;-28
2022/03/22 01:11:05;;;;;;;10.60;4.80;;;;;;;1.62;65.27;100857.15;104772;1271;73406;-28
2022/03/22 01:13:34;;;;;;;12.00;6.10;;;;;;;1.41;66.12;100853.02;104768;1272;62157;-28
2022/03/22 01:16:04;;;;;;;11.60;5.90;;;;;;;1.20;66.92;100852.29;104839;1271;62114;-28
2022/03/22 01:18:34;;;;;;;12.50;5.20;;;;;;;1.08;67.38;100851.59;104857;1272;75303;-28
2022/03/22 01:21:04;;;;;;;13.80;5.40;;;;;;;0.91;67.68;100848.05;104881;1271;74831;-30
2022/03/22 01:23:34;;;;;;;11.00;6.20;;;;;;;0.80;68.79;100851.59;104801;1271;74581;-28
2022/03/22 01:26:06;;;;;;;16.80;6.70;;;;;;;0.68;69.28;100847.46;104801;1271;61558;-28
2022/03/22 01:28:36;;;;;;;16.20;6.60;;;;;;;0.68;69.45;100845.06;104613;1273;62390;-28
2022/03/22 01:31:06;;;;;;;13.10;6.10;;;;;;;1.16;68.21;100845.16;104730;1271;75576;-30
2022/03/22 01:33:36;;;;;;;14.70;6.60;;;;;;;1.61;65.88;100842.61;104845;1271;74847;-28
2022/03/22 01:36:06;;;;;;;13.80;6.30;;;;;;;1.60;66.03;100841.77;104848;1271;74463;-28
2022/03/22 01:38:36;;;;;;;17.10;7.20;;;;;;;1.44;66.36;100838.93;104708;1271;61195;-30
2022/03/22 01:41:05;;;;;;;15.30;7.20;;;;;;;1.27;67.39;100837.30;104790;1271;62002;-28
2022/03/22 01:43:35;;;;;;;16.60;6.90;;;;;;;1.15;67.59;100838.15;104787;1273;75366;-29
2022/03/22 01:46:05;;;;;;;13.40;6.10;;;;;;;1.07;68.11;100839.13;104785;1271;75992;-28
2022/03/22 01:48:35;;;;;;;12.60;6.80;;;;;;;0.96;68.77;100838.21;104631;1276;74124;-28
2022/03/22 01:51:05;;;;;;;16.60;6.80;;;;;;;0.90;69.30;100842.23;104800;1271;61209;-29
2022/03/22 01:53:37;;;;;;;13.40;5.40;;;;;;;0.90;69.48;100847.54;104653;1273;61783;-30
2022/03/22 01:56:06;;;;;;;32.30;18.10;;;;;;;1.52;67.74;100849.08;104748;1273;75944;-29
2022/03/22 01:58:36;;;;;;;18.90;8.90;;;;;;;1.97;65.73;100857.80;104825;1271;75807;-29
2022/03/22 02:06:45;;;;;;;13.70;7.40;;;;;;;1.75;65.67;100852.84;104797;1271;62623;-29
2022/03/22 02:09:15;;;;;;;14.30;6.70;;;;;;;1.46;66.76;100849.17;104754;1272;73499;-29
2022/03/22 02:11:44;;;;;;;15.30;6.60;;;;;;;1.13;67.89;100846.05;104786;1273;75935;-29
2022/03/22 02:14:15;;;;;;;13.60;5.80;;;;;;;0.89;68.73;100844.14;104843;1274;74264;-30
2022/03/22 02:16:44;;;;;;;13.10;6.10;;;;;;;0.69;69.36;100847.45;105064;1271;61139;-29
2022/03/22 02:19:15;;;;;;;15.10;5.90;;;;;;;0.52;69.83;100849.70;104833;1271;61160;-28
2022/03/22 02:21:44;;;;;;;12.60;5.70;;;;;;;0.33;70.27;100848.36;104815;1274;74300;-28
2022/03/22 02:24:15;;;;;;;10.10;5.10;;;;;;;0.13;70.92;100848.05;104631;1274;75049;-28
2022/03/22 02:26:47;;;;;;;9.70;3.00;;;;;;;0.01;71.23;100849.84;104832;1273;74290;-29
2022/03/22 02:29:18;;;;;;;11.50;4.80;;;;;;;0.50;71.01;100848.85;104898;1271;63442;-29
2022/03/22 02:31:55;;;;;;;13.10;5.40;;;;;;;1.16;68.17;100848.74;104782;1271;61104;-28
2022/03/22 02:34:25;;;;;;;10.70;6.00;;;;;;;1.12;67.32;100851.70;104864;1271;74462;-28
2022/03/22 02:36:54;;;;;;;8.90;4.30;;;;;;;0.85;67.45;100851.70;104673;1274;76024;-28
2022/03/22 02:39:26;;;;;;;9.70;4.10;;;;;;;0.42;68.43;100853.05;104892;1271;76336;-28
2022/03/22 02:41:56;;;;;;;8.40;4.40;;;;;;;0.03;70.46;100853.42;104816;1271;61271;-28
2022/03/22 02:44:26;;;;;;;10.00;4.90;;;;;;;-0.29;71.86;100857.61;104768;1271;62034;-28
2022/03/22 02:46:56;;;;;;;11.30;5.40;;;;;;;-0.52;73.95;100857.95;104812;1271;75268;-28
2022/03/22 02:49:29;;;;;;;10.30;4.70;;;;;;;-0.64;74.55;100857.16;104809;1272;76205;-28
2022/03/22 02:52:01;;;;;;;10.80;4.40;;;;;;;-0.73;74.96;100859.27;104791;1271;74501;-29
2022/03/22 02:54:30;;;;;;;6.80;3.10;;;;;;;-0.84;75.19;100857.44;104903;1271;62628;-28
2022/03/22 02:57:00;;;;;;;10.10;4.90;;;;;;;-0.34;74.70;100860.54;104822;1271;60999;-28
2022/03/22 02:59:31;;;;;;;11.50;5.20;;;;;;;0.37;72.03;100861.30;105023;1271;75496;-28
2022/03/22 03:02:01;;;;;;;13.30;5.50;;;;;;;0.55;70.94;100863.85;105111;1272;74945;-28
2022/03/22 03:04:30;;;;;;;8.40;4.20;;;;;;;0.46;70.94;100863.09;105144;1272;72361;-29
2022/03/22 03:07:00;;;;;;;8.40;3.80;;;;;;;0.26;70.59;100863.81;105033;1274;60960;-29
2022/03/22 03:09:30;;;;;;;8.60;4.10;;;;;;;0.01;70.37;100860.78;105023;1272;61025;-28
2022/03/22 03:12:00;;;;;;;9.30;4.10;;;;;;;-0.21;70.90;100864.55;105148;1271;74413;-28
2022/03/22 03:14:49;;;;;;;8.00;3.70;;;;;;;-0.46;71.99;100867.63;105087;1271;75671;-28
2022/03/22 03:17:18;;;;;;;8.20;4.70;;;;;;;-0.66;73.46;100870.66;105037;1271;74382;-29
2022/03/22 03:19:48;;;;;;;12.20;4.40;;;;;;;-0.86;73.62;100867.70;104828;1271;61545;-30
2022/03/22 03:22:19;;;;;;;12.00;5.10;;;;;;;-1.09;74.57;100866.44;104757;1274;62135;-30
2022/03/22 03:24:49;;;;;;;4.60;3.00;;;;;;;-1.29;75.68;100863.95;104749;1271;74473;-30
2022/03/22 03:27:19;;;;;;;9.30;4.30;;;;;;;-0.84;76.03;100870.73;104849;1274;74801;-30
2022/03/22 03:29:49;;;;;;;12.00;4.80;;;;;;;-0.15;73.43;100866.38;104891;1271;72164;-30
2022/03/22 03:32:19;;;;;;;11.70;5.40;;;;;;;0.02;72.38;100866.58;104837;1271;61121;-30
2022/03/22 03:34:49;;;;;;;10.40;4.40;;;;;;;-0.08;72.39;100869.56;104835;1271;61857;-30
2022/03/22 03:37:19;;;;;;;7.50;3.70;;;;;;;-0.26;72.16;100871.24;104667;1274;75336;-29
2022/03/22 03:39:55;;;;;;;6.10;3.90;;;;;;;-0.46;72.16;100873.61;104777;1271;75966;-29
2022/03/22 03:42:25;;;;;;;10.10;4.70;;;;;;;-0.69;72.90;100872.54;104750;1271;73239;-29
2022/03/22 03:47:45;;;;;;;9.10;4.50;;;;;;;-1.10;73.91;100868.48;105080;1271;62165;-29
2022/03/22 03:50:15;;;;;;;9.30;4.70;;;;;;;-1.28;74.44;100867.88;105128;1271;75875;-29
2022/03/22 03:52:44;;;;;;;7.60;2.60;;;;;;;-1.42;75.29;100869.96;105141;1271;74981;-29
2022/03/22 03:55:14;;;;;;;11.60;4.60;;;;;;;-1.01;75.54;100871.68;104817;1271;74537;-29
2022/03/22 03:57:44;;;;;;;10.80;5.50;;;;;;;-0.25;73.41;100878.41;104787;1271;61946;-28
2022/03/22 04:00:15;;;;;;;9.90;4.50;;;;;;;-0.07;71.75;100880.48;104774;1271;61121;-28
2022/03/22 04:02:46;;;;;;;12.30;5.40;;;;;;;-0.25;71.96;100879.95;104772;1271;74408;-28
2022/03/22 04:05:20;;;;;;;8.40;3.80;;;;;;;-0.53;72.16;100884.91;104776;1271;73297;-28
2022/03/22 04:07:50;;;;;;;6.40;3.20;;;;;;;-0.80;72.42;100880.29;104723;1274;73161;-28
2022/03/22 04:10:20;;;;;;;12.70;4.30;;;;;;;-1.03;73.14;100885.33;104746;1274;61641;-28
2022/03/22 04:12:50;;;;;;;15.40;3.60;;;;;;;-1.24;73.52;100885.40;104808;1271;61851;-28
2022/03/22 04:15:20;;;;;;;10.70;4.20;;;;;;;-1.46;73.52;100884.61;104889;1274;75393;-28
2022/03/22 04:17:50;;;;;;;5.80;3.40;;;;;;;-1.66;74.72;100888.23;104806;1271;75928;-30
2022/03/22 04:20:21;;;;;;;6.00;3.70;;;;;;;-1.80;75.32;100887.06;104497;1274;74289;-30
2022/03/22 04:22:51;;;;;;;8.50;2.60;;;;;;;-1.84;76.40;100888.60;104663;1274;61257;-28
2022/03/22 04:25:21;;;;;;;9.40;3.20;;;;;;;-1.21;75.75;100890.50;104753;1274;61147;-29
2022/03/22 04:33:29;;;;;;;9.00;4.10;;;;;;;0.16;69.81;100897.73;104887;1274;74160;-28
2022/03/22 04:35:59;;;;;;;9.50;3.50;;;;;;;0.03;70.24;100901.76;104657;1274;61086;-28
2022/03/22 04:38:29;;;;;;;7.40;3.40;;;;;;;-0.01;70.31;100904.36;104972;1274;61021;-30
2022/03/22 04:40:59;;;;;;;9.40;4.60;;;;;;;-0.04;70.27;100906.27;104874;1273;75572;-30
2022/03/22 04:43:28;;;;;;;7.30;4.30;;;;;;;-0.05;70.81;100905.08;104870;1274;76016;-29
2022/03/22 04:45:58;;;;;;;10.80;4.60;;;;;;;-0.04;70.98;100908.83;104803;1274;74307;-30
2022/03/22 04:48:29;;;;;;;12.90;4.40;;;;;;;0.03;70.94;100910.80;104764;1274;61286;-30
2022/03/22 04:56:46;;;;;;;6.80;3.90;;;;;;;0.29;70.83;100915.55;105028;1274;75779;-33
2022/03/22 04:59:19;;;;;;;10.00;4.50;;;;;;;0.35;70.61;100911.73;105060;1273;74783;-32
2022/03/22 05:01:50;;;;;;;5.30;2.80;;;;;;;0.44;71.32;100912.15;104781;1274;62949;-31
2022/03/22 05:04:20;;;;;;;10.20;4.50;;;;;;;1.20;70.11;100907.19;104945;1273;61041;-31
2022/03/22 05:06:49;;;;;;;10.00;5.30;;;;;;;2.09;67.42;100913.45;104895;1273;75539;-28
2022/03/22 05:09:19;;;;;;;9.30;3.90;;;;;;;2.39;66.21;100912.42;104660;1273;76163;-28
2022/03/22 05:11:49;;;;;;;9.00;4.40;;;;;;;2.52;65.86;100912.53;104745;1273;74089;-28
2022/03/22 05:14:18;;;;;;;11.60;5.60;;;;;;;2.46;66.45;100915.73;104687;1273;61286;-28
2022/03/22 05:17:03;;;;;;;;;;;;;;;2.49;66.75;100916.52;104945;1273;61105;-28
2022/03/22 05:19:32;;;;;;;6.70;3.30;;;;;;;2.49;66.95;100921.85;104796;1273;75332;-28
2022/03/22 05:22:21;;;;;;;12.20;5.10;;;;;;;2.49;67.41;100921.00;105021;1273;76119;-28
2022/03/22 05:24:53;;;;;;;10.20;5.00;;;;;;;2.42;68.06;100921.80;105012;1273;74400;-28
2022/03/22 05:27:25;;;;;;;12.50;5.10;;;;;;;2.32;68.64;100921.63;104875;1273;61124;-28
2022/03/22 05:29:55;;;;;;;11.60;5.20;;;;;;;2.27;68.81;100919.49;104927;1273;62180;-28
2022/03/22 05:32:24;;;;;;;11.10;5.40;;;;;;;2.19;70.03;100923.23;105041;1273;75562;-28
2022/03/22 05:34:54;;;;;;;8.60;3.90;;;;;;;2.11;69.93;100927.30;105088;1274;75807;-28
2022/03/22 05:37:25;;;;;;;12.70;6.00;;;;;;;2.15;70.70;100925.02;105030;1273;74817;-28
2022/03/22 05:39:55;;;;;;;13.30;5.20;;;;;;;2.13;70.23;100923.66;104796;1274;61672;-28
2022/03/22 05:42:25;;;;;;;11.30;6.00;;;;;;;2.14;70.39;100923.14;104831;1274;61071;-28
2022/03/22 05:44:55;;;;;;;15.30;5.40;;;;;;;2.22;70.96;100926.27;104723;1274;74654;-28
2022/03/22 05:47:25;;;;;;;14.80;6.10;;;;;;;2.29;70.97;100927.86;104695;1273;74760;-28
2022/03/22 05:49:55;;;;;;;15.60;7.50;;;;;;;2.34;70.13;100923.82;104767;1273;73246;-28
2022/03/22 05:52:25;;;;;;;15.80;6.50;;;;;;;2.46;70.12;100926.36;104676;1273;61202;-28
2022/03/22 05:54:54;;;;;;;13.90;6.80;;;;;;;2.51;69.88;100927.46;104666;1273;62294;-28
2022/03/22 05:57:24;;;;;;;10.70;5.30;;;;;;;2.53;69.37;100928.47;104753;1273;75433;-28
2022/03/22 05:59:57;;;;;;;9.60;3.50;;;;;;;2.70;69.54;100928.50;104735;1273;78087;-28
2022/03/22 06:02:27;;;;;;;11.00;6.40;;;;;;;3.22;68.13;100934.00;104643;1273;74379;-27
2022/03/22 06:04:57;;;;;;;13.90;5.10;;;;;;;3.85;66.24;100932.13;104787;1273;61116;-27
2022/03/22 06:07:27;;;;;;;16.90;7.20;;;;;;;4.09;65.59;100932.77;104834;1273;61031;-27
2022/03/22 06:09:57;;;;;;;11.20;5.30;;;;;;;3.88;65.24;100939.27;105134;1273;75596;-27
2022/03/22 06:12:33;;;;;;;15.10;6.40;;;;;;;3.91;65.66;100937.66;105000;1273;75992;-28
2022/03/22 06:15:16;;;;;;;10.70;4.70;;;;;;;3.82;65.67;100937.52;104731;1273;74391;-28
2022/03/22 06:17:49;;;;;;;12.40;5.90;;;;;;;3.98;65.88;100941.10;104817;1273;61871;-28
2022/03/22 06:20:20;;;;;;;19.00;6.90;;;;;;;3.93;65.83;100937.27;104624;1275;61241;-28
2022/03/22 06:22:49;;;;;;;16.40;6.60;;;;;;;3.93;65.37;100935.73;104524;1273;72345;-28
2022/03/22 06:25:19;;;;;;;14.40;6.90;;;;;;;3.94;65.53;100933.63;104647;1273;75114;-27
2022/03/22 06:28:00;;;;;;;15.40;7.70;;;;;;;4.01;65.16;100932.93;104612;1272;75060;-27
2022/03/22 06:30:30;;;;;;;20.70;7.80;;;;;;;4.10;65.30;100934.98;105052;1273;61311;-27
2022/03/22 06:33:01;;;;;;;13.00;6.50;;;;;;;4.22;64.87;100935.72;104752;1273;61053;-27
2022/03/22 06:35:33;;;;;;;16.10;6.30;;;;;;;4.32;65.15;100931.00;104605;1273;75603;-28
2022/03/22 06:38:03;;;;;;;14.60;7.20;;;;;;;4.50;64.68;100925.88;104639;1273;75234;-27
2022/03/22 06:40:34;;;;;;;14.10;5.90;;;;;;;4.65;63.09;100925.14;104628;1273;72456;-27
2022/03/22 06:43:05;;;;;;;11.70;5.40;;;;;;;4.81;62.71;100922.66;104641;1273;61240;-27
2022/03/22 06:45:37;;;;;;;13.70;4.70;;;;;;;5.02;61.93;100925.17;104668;1273;61146;-27
2022/03/22 06:48:07;;;;;;;11.10;5.00;;;;;;;5.14;61.68;100928.62;104577;1272;74856;-27
2022/03/22 06:50:38;;;;;;;29.00;6.50;;;;;;;5.30;61.13;100927.81;104689;1273;75849;-27
2022/03/22 06:53:07;;;;;;;17.10;4.60;;;;;;;5.55;61.11;100928.64;104670;1272;74383;-27
2022/03/22 06:55:38;;;;;;;11.40;4.30;;;;;;;5.76;60.53;100931.95;104740;1272;61134;-28
2022/03/22 06:58:08;;;;;;;11.00;4.20;;;;;;;5.87;59.08;100934.56;104702;1273;60993;-27
2022/03/22 07:00:38;;;;;;;12.50;5.10;;;;;;;5.93;59.07;100935.06;104940;1273;75758;-27
2022/03/22 07:03:08;;;;;;;10.20;3.90;;;;;;;6.13;58.80;100939.61;104852;1273;75807;-27
2022/03/22 07:05:38;;;;;;;10.30;4.10;;;;;;;6.29;58.36;100943.05;104751;1273;75519;-27
2022/03/22 07:08:08;;;;;;;6.90;4.00;;;;;;;6.40;57.25;100944.92;104649;1274;61210;-27
2022/03/22 07:12:00;;;;;;;16.40;5.00;;;;;;;6.46;57.09;100939.02;104914;1273;61833;-27
2022/03/22 07:13:58;;;;;;;9.50;3.60;;;;;;;6.68;56.72;100937.58;104816;1273;74751;-27
2022/03/22 07:16:28;;;;;;;9.20;3.50;;;;;;;6.87;56.34;100936.77;104640;1273;74985;-27
2022/03/22 07:18:59;;;;;;;7.60;3.30;;;;;;;7.02;55.80;100936.22;104724;1274;73755;-27
2022/03/22 07:21:30;;;;;;;9.40;3.30;;;;;;;7.26;55.79;100940.88;105109;1273;62158;-27
2022/03/22 07:24:00;;;;;;;11.50;4.60;;;;;;;7.52;54.72;100945.41;104987;1273;61180;-27
2022/03/22 07:26:30;;;;;;;18.80;4.80;;;;;;;7.77;53.88;100947.92;105106;1273;75515;-27
2022/03/22 07:29:04;;;;;;;9.70;3.80;;;;;;;7.99;53.70;100952.27;105006;1273;75709;-27
2022/03/22 07:31:40;;;;;;;17.00;7.00;;;;;;;8.24;53.04;100952.98;104761;1273;74142;-27
2022/03/22 07:34:12;;;;;;;9.60;4.40;;;;;;;8.68;52.55;100953.77;105095;1273;62697;-27
2022/03/22 07:36:42;;;;;;;11.40;4.00;;;;;;;8.88;51.54;100952.20;104780;1274;61030;-27
2022/03/22 07:39:21;;;;;;;11.20;4.40;;;;;;;9.09;50.61;100954.07;104922;1273;74307;-27
2022/03/22 07:41:51;;;;;;;30.90;5.00;;;;;;;9.57;50.42;100956.73;104672;1272;76427;-27
2022/03/22 07:44:21;;;;;;;13.70;4.10;;;;;;;9.94;49.14;100954.48;104724;1274;74606;-27
2022/03/22 07:46:51;;;;;;;13.00;5.70;;;;;;;9.88;48.11;100954.08;104786;1273;61036;-27
2022/03/22 07:55:12;;;;;;;16.90;6.50;;;;;;;10.22;47.82;100947.70;104765;1273;74271;-27
2022/03/22 07:57:42;;;;;;;25.80;10.00;;;;;;;10.34;47.01;100951.65;104970;1273;74388;-28
2022/03/22 08:00:13;;;;;;;14.20;4.30;;;;;;;10.48;46.51;100950.80;104940;1271;61894;-28
2022/03/22 08:02:55;;;;;;;13.50;3.80;;;;;;;10.45;45.61;100950.96;104651;1273;62077;-27
2022/03/22 08:05:25;;;;;;;10.30;3.60;;;;;;;10.57;44.85;100946.55;104636;1273;75527;-27
2022/03/22 08:07:57;;;;;;;9.80;4.00;;;;;;;10.62;44.17;100945.96;104615;1273;76166;-27
2022/03/22 08:10:47;;;;;;;9.50;3.10;;;;;;;10.53;44.19;100943.27;104779;1273;74318;-27
2022/03/22 08:13:17;;;;;;;5.50;2.80;;;;;;;10.53;44.05;100942.40;104630;1274;62349;-27
2022/03/22 08:15:47;;;;;;;24.20;4.20;;;;;;;10.70;43.58;100935.12;105108;1273;61113;-27
2022/03/22 08:18:17;;;;;;;9.30;3.30;;;;;;;10.67;42.61;100934.77;105120;1273;74308;-28
2022/03/22 08:20:46;;;;;;;12.70;3.70;;;;;;;10.64;42.75;100939.43;104639;1271;76016;-27
2022/03/22 08:23:17;;;;;;;7.30;2.90;;;;;;;10.82;42.92;100941.46;104822;1271;74764;-27
2022/03/22 08:25:49;;;;;;;11.40;3.10;;;;;;;11.19;42.69;100937.77;104942;1271;61139;-28
2022/03/22 08:28:21;;;;;;;15.20;3.80;;;;;;;11.34;42.14;100935.05;104809;1271;61077;-28
2022/03/22 08:30:50;;;;;;;8.20;3.60;;;;;;;11.50;41.84;100934.17;104706;1274;75353;-27
2022/03/22 08:33:20;;;;;;;8.40;3.50;;;;;;;11.62;40.56;100929.55;104948;1271;76464;-28
2022/03/22 08:36:09;;;;;;;7.10;3.20;;;;;;;11.58;40.72;100930.25;104996;1271;72941;-27
2022/03/22 08:38:58;;;;;;;9.70;3.10;;;;;;;12.16;39.30;100937.48;105107;1271;61064;-29
2022/03/22 08:41:28;;;;;;;10.60;3.60;;;;;;;12.26;38.54;100930.96;105139;1270;61086;-29
2022/03/22 08:43:57;;;;;;;9.70;3.80;;;;;;;12.01;39.28;100933.79;104697;1272;75511;-29
2022/03/22 08:46:27;;;;;;;10.50;4.80;;;;;;;12.19;39.05;100930.30;104889;1271;76033;-29
2022/03/22 08:48:58;;;;;;;6.40;2.80;;;;;;;12.04;38.43;100927.31;104984;1271;74329;-29
2022/03/22 08:51:28;;;;;;;10.80;4.20;;;;;;;12.42;37.86;100929.18;104799;1271;62492;-29
2022/03/22 08:54:06;;;;;;;5.50;2.30;;;;;;;12.04;38.48;100926.98;104818;1271;61008;-29
2022/03/22 08:56:37;;;;;;;7.00;2.60;;;;;;;12.54;38.01;100926.16;104764;1271;75540;-26
2022/03/22 08:59:27;;;;;;;5.50;2.60;;;;;;;12.98;37.38;100918.46;104772;1271;76628;-29
2022/03/22 09:01:59;;;;;;;16.80;5.00;;;;;;;12.86;36.92;100919.55;104791;1271;73459;-28
2022/03/22 09:07:20;;;;;;;11.20;3.60;;;;;;;13.08;35.37;100917.90;104804;1274;62175;-29
2022/03/22 09:09:50;;;;;;;6.20;1.90;;;;;;;13.17;35.31;100917.49;105070;1271;73410;-29
2022/03/22 09:12:20;;;;;;;9.60;4.30;;;;;;;13.27;35.08;100920.90;104971;1272;75046;-29
2022/03/22 09:14:53;;;;;;;11.20;3.10;;;;;;;13.62;34.06;100920.77;105118;1271;73206;-29
2022/03/22 09:17:23;;;;;;;6.60;1.90;;;;;;;13.31;33.32;100915.04;105013;1271;60991;-29
2022/03/22 09:19:52;;;;;;;5.80;2.10;;;;;;;13.51;33.83;100913.83;104917;1271;61159;-29
2022/03/22 09:22:44;;;;;;;6.70;2.40;;;;;;;13.52;33.49;100905.89;104902;1271;75473;-29
2022/03/22 09:25:14;;;;;;;17.70;5.40;;;;;;;13.67;32.74;100900.42;104771;1271;75765;-29
2022/03/22 09:27:45;;;;;;;12.00;3.00;;;;;;;14.27;32.53;100904.00;104729;1272;73403;-29
2022/03/22 09:30:16;;;;;;;6.20;2.50;;;;;;;14.42;31.76;100900.85;104782;1271;62047;-29
2022/03/22 09:32:49;;;;;;;8.50;2.60;;;;;;;13.97;31.05;100897.94;104807;1271;61903;-29
2022/03/22 09:35:19;;;;;;;8.90;3.00;;;;;;;14.29;31.03;100894.95;104906;1271;74580;-29
2022/03/22 09:37:49;;;;;;;7.80;2.20;;;;;;;14.43;30.92;100893.98;104834;1271;73756;-29
2022/03/22 09:40:19;;;;;;;11.00;2.20;;;;;;;14.28;30.75;100893.60;105026;1272;73500;-29
2022/03/22 09:42:57;;;;;;;8.50;3.30;;;;;;;14.46;30.03;100890.51;105088;1271;61129;-29
2022/03/22 09:45:29;;;;;;;8.90;4.40;;;;;;;14.29;30.25;100891.77;105061;1271;61154;-29
2022/03/22 09:48:06;;;;;;;7.40;2.70;;;;;;;14.52;29.41;100887.96;104844;1271;75678;-29
2022/03/22 09:53:24;;;;;;;6.20;2.60;;;;;;;14.80;28.70;100882.02;104897;1271;72217;-27
2022/03/22 09:55:53;;;;;;;5.80;2.50;;;;;;;15.36;28.14;100880.36;104805;1271;61933;-29
2022/03/22 09:58:23;;;;;;;4.30;1.90;;;;;;;14.79;26.86;100877.41;105157;1271;61737;-29
2022/03/22 10:00:54;;;;;;;5.80;2.80;;;;;;;15.11;26.64;100874.77;105131;1271;75853;-30
2022/03/22 10:03:24;;;;;;;10.30;4.30;;;;;;;15.43;26.90;100872.54;104792;1274;75926;-29
2022/03/22 10:06:02;;;;;;;14.70;6.10;;;;;;;15.84;27.23;100871.97;104803;1271;73407;-28
2022/03/22 10:08:34;;;;;;;9.70;4.00;;;;;;;15.67;27.26;100865.84;104721;1271;61131;-28
2022/03/22 10:11:06;;;;;;;5.00;2.00;;;;;;;15.94;27.33;100864.40;104899;1271;61893;-28
2022/03/22 10:13:53;;;;;;;8.70;2.60;;;;;;;15.89;26.85;100866.40;105058;1271;75575;-27
2022/03/22 10:16:23;;;;;;;5.60;2.10;;;;;;;15.78;26.49;100861.41;104855;1271;75941;-28
2022/03/22 10:18:55;;;;;;;18.70;2.40;;;;;;;15.72;26.88;100858.30;104902;1271;74204;-27
2022/03/22 10:21:26;;;;;;;8.10;2.00;;;;;;;16.02;26.12;100854.24;105107;1272;61197;-27
2022/03/22 10:23:56;;;;;;;5.80;2.00;;;;;;;16.16;26.14;100854.20;105097;1271;61142;-27
2022/03/22 10:26:36;;;;;;;7.60;2.20;;;;;;;15.98;27.23;100849.95;105133;1271;74708;-27
2022/03/22 10:29:07;;;;;;;5.70;1.90;;;;;;;15.92;27.31;100849.02;104862;1272;75246;-27
2022/03/22 10:31:40;;;;;;;5.30;2.30;;;;;;;15.57;26.41;100844.72;104830;1271;74190;-27
2022/03/22 10:34:11;;;;;;;6.20;2.00;;;;;;;16.02;25.67;100841.97;104750;1272;61159;-27
2022/03/22 10:36:42;;;;;;;4.90;1.90;;;;;;;15.95;25.43;100838.95;104699;1271;61115;-27
2022/03/22 10:39:12;;;;;;;9.80;3.70;;;;;;;15.85;24.93;100832.36;104783;1271;74498;-27
2022/03/22 10:41:44;;;;;;;5.20;2.10;;;;;;;16.11;24.40;100835.99;104672;1273;75274;-27
2022/03/22 10:44:21;;;;;;;5.90;2.50;;;;;;;16.62;25.21;100831.77;104835;1271;74877;-27
2022/03/22 10:46:50;;;;;;;12.50;5.60;;;;;;;16.68;24.60;100824.28;104831;1271;61228;-27
2022/03/22 10:49:20;;;;;;;4.70;1.90;;;;;;;16.41;23.97;100818.86;104687;1273;62195;-27
2022/03/22 10:52:09;;;;;;;6.20;2.00;;;;;;;16.58;24.14;100813.27;104892;1271;75776;-27
2022/03/22 10:54:42;;;;;;;6.80;1.70;;;;;;;16.65;24.20;100816.83;105065;1271;75933;-28
2022/03/22 10:57:14;;;;;;;7.40;2.60;;;;;;;16.34;24.54;100813.40;105123;1271;75002;-27
2022/03/22 10:59:45;;;;;;;6.00;1.80;;;;;;;16.60;24.33;100816.32;105080;1273;62415;-27
2022/03/22 11:02:18;;;;;;;15.60;5.40;;;;;;;16.89;23.89;100815.64;105075;1272;62061;-27
2022/03/22 11:04:51;;;;;;;17.30;6.10;;;;;;;16.70;23.47;100810.48;104934;1271;75341;-27
2022/03/22 11:07:24;;;;;;;13.90;4.30;;;;;;;16.96;22.96;100807.54;104734;1271;76082;-27
2022/03/22 11:09:59;;;;;;;20.50;9.90;;;;;;;17.03;23.28;100806.81;105016;1271;74326;-27
2022/03/22 11:12:35;;;;;;;15.90;5.40;;;;;;;17.03;23.90;100804.13;104742;1272;62195;-27
2022/03/22 11:15:05;;;;;;;13.30;6.10;;;;;;;17.22;23.84;100806.15;104901;1273;61158;-27
2022/03/22 11:17:55;;;;;;;19.50;9.70;;;;;;;17.15;23.90;100804.89;105049;1271;76645;-28
2022/03/22 11:20:25;;;;;;;19.10;7.10;;;;;;;17.34;23.42;100800.60;105110;1271;76464;-24
2022/03/22 11:23:18;;;;;;;17.60;7.10;;;;;;;17.35;22.71;100792.64;104940;1271;74192;-27
2022/03/22 11:25:48;;;;;;;17.00;7.00;;;;;;;17.17;22.88;100795.16;104890;1271;61161;-27
2022/03/22 11:28:22;;;;;;;14.90;6.90;;;;;;;17.01;22.13;100795.01;104927;1271;61055;-27
2022/03/22 11:30:53;;;;;;;7.90;3.10;;;;;;;16.95;22.40;100788.80;104756;1271;75537;-27
2022/03/22 11:36:17;;;;;;;6.80;2.30;;;;;;;16.36;23.30;100790.08;105121;1271;74421;-27
2022/03/22 11:38:51;;;;;;;11.40;6.20;;;;;;;17.15;23.05;100781.23;105105;1271;61080;-27
2022/03/22 11:44:35;;;;;;;11.80;3.10;;;;;;;17.03;22.61;100772.89;105103;1271;74756;-27
2022/03/22 11:47:12;;;;;;;6.30;2.80;;;;;;;16.92;23.61;100772.90;105074;1271;75079;-28
2022/03/22 11:49:55;;;;;;;6.70;2.10;;;;;;;17.05;23.45;100774.66;104787;1271;74364;-27
2022/03/22 11:52:26;;;;;;;6.70;2.20;;;;;;;17.25;23.01;100769.71;104872;1274;61224;-27
2022/03/22 11:55:08;;;;;;;12.00;2.10;;;;;;;17.39;23.25;100768.77;104988;1271;62508;-28
2022/03/22 11:57:51;;;;;;;19.20;8.90;;;;;;;17.41;22.70;100766.46;104867;1271;75527;-29
2022/03/22 12:00:22;;;;;;;13.20;6.70;;;;;;;17.52;22.90;100761.06;104826;1271;75016;-29
2022/03/22 12:02:54;;;;;;;3.70;2.20;;;;;;;17.77;22.35;100761.89;104791;1271;73127;-27
2022/03/22 12:05:24;;;;;;;4.40;2.30;;;;;;;17.44;22.13;100760.46;104668;1274;61157;-27
2022/03/22 12:07:54;;;;;;;9.50;4.80;;;;;;;17.48;22.65;100757.33;104781;1271;61453;-26
2022/03/22 12:10:51;;;;;;;6.00;2.80;;;;;;;17.35;23.35;100753.09;104847;1271;76285;-27
2022/03/22 12:13:21;;;;;;;6.00;2.20;;;;;;;17.53;22.48;100751.43;104799;1271;76428;-28
2022/03/22 12:15:59;;;;;;;7.80;3.20;;;;;;;17.57;22.23;100749.39;104923;1271;74392;-27
2022/03/22 12:18:30;;;;;;;10.40;5.20;;;;;;;17.56;22.04;100747.39;104802;1271;62149;-29